DAL1552 KRDU-KATL
Flight info
| Callsign | DAL1552 |
|---|---|
| Flight time | 1h 10m |
| Altitude | 28000 |
| Route | SHPRD4 SHPRD LEAVI OZZZI2 |
| Aircraft | B738/M-SDE2E3FGHIRWXY/LB1 |
Departure
| Time | 2026-05-08 04:50 |
|---|---|
| Airport | Raleigh-Durham International Airport (KRDU) |
Arrival
| Time | 2026-05-08 06:01 |
|---|---|
| Airport | Hartsfield Jackson Atlanta International Airport (KATL) |
| Time | Latitude | Longitude | Altitude | Speed | Heading |
|---|---|---|---|---|---|
| 2026-05-08 04:33 | 35.87931 | -78.79198 | 392 ft | 0 kts | 135° |
| 2026-05-08 04:42 | 35.87938 | -78.79208 | 392 ft | 2 kts | 134° |
| 2026-05-08 04:42 | 35.87949 | -78.79221 | 391 ft | 2 kts | 135° |
| 2026-05-08 04:43 | 35.87960 | -78.79234 | 390 ft | 2 kts | 150° |
| 2026-05-08 04:43 | 35.87974 | -78.79238 | 390 ft | 2 kts | 185° |
| 2026-05-08 04:43 | 35.87989 | -78.79233 | 390 ft | 2 kts | 217° |
| 2026-05-08 04:43 | 35.87999 | -78.79219 | 390 ft | 2 kts | 227° |
| 2026-05-08 04:44 | 35.88010 | -78.79207 | 390 ft | 2 kts | 224° |
| 2026-05-08 04:44 | 35.88014 | -78.79203 | 390 ft | 0 kts | 225° |
| 2026-05-08 04:45 | 35.88013 | -78.79203 | 390 ft | 0 kts | 225° |
| 2026-05-08 04:46 | 35.88001 | -78.79218 | 390 ft | 4 kts | 224° |
| 2026-05-08 04:46 | 35.87982 | -78.79256 | 389 ft | 6 kts | 265° |
| 2026-05-08 04:46 | 35.87996 | -78.79299 | 387 ft | 5 kts | 287° |
| 2026-05-08 04:46 | 35.87975 | -78.79349 | 385 ft | 7 kts | 225° |
| 2026-05-08 04:47 | 35.87922 | -78.79415 | 382 ft | 14 kts | 224° |
| 2026-05-08 04:47 | 35.87848 | -78.79506 | 381 ft | 15 kts | 225° |
| 2026-05-08 04:47 | 35.87773 | -78.79599 | 379 ft | 15 kts | 225° |
| 2026-05-08 04:47 | 35.87694 | -78.79697 | 377 ft | 16 kts | 225° |
| 2026-05-08 04:48 | 35.87609 | -78.79800 | 375 ft | 17 kts | 225° |
| 2026-05-08 04:48 | 35.87523 | -78.79908 | 372 ft | 18 kts | 225° |
| 2026-05-08 04:48 | 35.87436 | -78.80012 | 368 ft | 12 kts | 225° |
| 2026-05-08 04:48 | 35.87402 | -78.80059 | 367 ft | 3 kts | 237° |
| 2026-05-08 04:49 | 35.87397 | -78.80102 | 365 ft | 8 kts | 282° |
| 2026-05-08 04:49 | 35.87440 | -78.80167 | 362 ft | 5 kts | 314° |
| 2026-05-08 04:49 | 35.87462 | -78.80169 | 362 ft | 4 kts | 26° |
| 2026-05-08 04:49 | 35.87499 | -78.80128 | 364 ft | 12 kts | 46° |
| 2026-05-08 04:50 | 35.87735 | -78.79836 | 371 ft | 83 kts | 44° |
| 2026-05-08 04:50 | 35.88295 | -78.79146 | 385 ft | 141 kts | 45° |
| 2026-05-08 04:50 | 35.89067 | -78.78194 | 666 ft | 162 kts | 44° |
| 2026-05-08 04:50 | 35.89823 | -78.77268 | 1507 ft | 150 kts | 40° |
| 2026-05-08 04:51 | 35.90540 | -78.76411 | 2219 ft | 142 kts | 40° |
| 2026-05-08 04:51 | 35.91270 | -78.75551 | 2638 ft | 151 kts | 36° |
| 2026-05-08 04:51 | 35.92039 | -78.74670 | 3173 ft | 153 kts | 38° |
| 2026-05-08 04:51 | 35.92778 | -78.73727 | 3679 ft | 157 kts | 39° |
| 2026-05-08 04:52 | 35.93685 | -78.72906 | 3975 ft | 167 kts | 15° |
| 2026-05-08 04:52 | 35.94836 | -78.72893 | 4310 ft | 176 kts | 339° |
| 2026-05-08 04:52 | 35.95824 | -78.73907 | 4603 ft | 200 kts | 302° |
| 2026-05-08 04:52 | 35.96182 | -78.75663 | 4995 ft | 225 kts | 271° |
| 2026-05-08 04:53 | 35.95705 | -78.77562 | 5499 ft | 245 kts | 244° |
| 2026-05-08 04:53 | 35.94810 | -78.79398 | 5977 ft | 258 kts | 244° |
| 2026-05-08 04:53 | 35.93908 | -78.81366 | 6529 ft | 267 kts | 245° |
| 2026-05-08 04:53 | 35.93027 | -78.83343 | 7337 ft | 266 kts | 245° |
| 2026-05-08 04:54 | 35.92156 | -78.85309 | 8242 ft | 261 kts | 245° |
| 2026-05-08 04:54 | 35.91298 | -78.87280 | 9077 ft | 259 kts | 245° |
| 2026-05-08 04:54 | 35.90478 | -78.89197 | 9895 ft | 256 kts | 245° |
| 2026-05-08 04:54 | 35.89651 | -78.91156 | 10485 ft | 262 kts | 246° |
| 2026-05-08 04:55 | 35.88956 | -78.93268 | 10862 ft | 273 kts | 259° |
| 2026-05-08 04:55 | 35.88717 | -78.95633 | 11319 ft | 283 kts | 266° |
| 2026-05-08 04:55 | 35.88553 | -78.98061 | 11993 ft | 286 kts | 264° |
| 2026-05-08 04:55 | 35.88283 | -79.00505 | 12733 ft | 288 kts | 263° |
| 2026-05-08 04:56 | 35.87938 | -79.02899 | 13425 ft | 291 kts | 261° |
| 2026-05-08 04:56 | 35.87546 | -79.05347 | 14158 ft | 292 kts | 261° |
| 2026-05-08 04:56 | 35.87144 | -79.07796 | 14949 ft | 291 kts | 261° |
| 2026-05-08 04:56 | 35.86749 | -79.10197 | 15725 ft | 290 kts | 261° |
| 2026-05-08 04:57 | 35.86352 | -79.12634 | 16490 ft | 289 kts | 261° |
| 2026-05-08 04:57 | 35.85959 | -79.15060 | 17122 ft | 292 kts | 261° |
| 2026-05-08 04:57 | 35.85569 | -79.17471 | 17841 ft | 291 kts | 262° |
| 2026-05-08 04:57 | 35.85171 | -79.19939 | 18429 ft | 294 kts | 261° |
| 2026-05-08 04:58 | 35.84777 | -79.22382 | 19077 ft | 294 kts | 261° |
| 2026-05-08 04:58 | 35.84378 | -79.24841 | 19731 ft | 294 kts | 262° |
| 2026-05-08 04:58 | 35.83974 | -79.27332 | 20293 ft | 296 kts | 261° |
| 2026-05-08 04:58 | 35.83575 | -79.29810 | 20838 ft | 298 kts | 262° |
| 2026-05-08 04:59 | 35.83274 | -79.32310 | 21378 ft | 299 kts | 265° |
| 2026-05-08 04:59 | 35.83081 | -79.34843 | 21938 ft | 300 kts | 266° |
| 2026-05-08 04:59 | 35.82920 | -79.37418 | 22469 ft | 301 kts | 267° |
| 2026-05-08 04:59 | 35.82756 | -79.39974 | 22948 ft | 303 kts | 266° |
| 2026-05-08 05:00 | 35.82579 | -79.42554 | 23498 ft | 303 kts | 266° |
| 2026-05-08 05:00 | 35.82395 | -79.45113 | 23978 ft | 303 kts | 266° |
| 2026-05-08 05:00 | 35.82202 | -79.47707 | 24563 ft | 301 kts | 266° |
| 2026-05-08 05:00 | 35.82009 | -79.50239 | 25065 ft | 301 kts | 266° |
| 2026-05-08 05:01 | 35.81815 | -79.52795 | 25504 ft | 302 kts | 265° |
| 2026-05-08 05:01 | 35.81533 | -79.55360 | 25984 ft | 303 kts | 263° |
| 2026-05-08 05:01 | 35.81112 | -79.57912 | 26417 ft | 304 kts | 261° |
| 2026-05-08 05:01 | 35.80647 | -79.60443 | 26875 ft | 305 kts | 261° |
| 2026-05-08 05:02 | 35.80186 | -79.62970 | 27299 ft | 305 kts | 261° |
| 2026-05-08 05:02 | 35.79731 | -79.65531 | 27702 ft | 305 kts | 261° |
| 2026-05-08 05:02 | 35.79292 | -79.68055 | 27992 ft | 305 kts | 261° |
| 2026-05-08 05:02 | 35.78852 | -79.70603 | 27997 ft | 303 kts | 262° |
| 2026-05-08 05:03 | 35.78414 | -79.73146 | 27998 ft | 301 kts | 261° |
| 2026-05-08 05:03 | 35.77987 | -79.75634 | 28002 ft | 300 kts | 261° |
| 2026-05-08 05:03 | 35.77559 | -79.78127 | 27998 ft | 298 kts | 261° |
| 2026-05-08 05:03 | 35.77130 | -79.80643 | 28001 ft | 299 kts | 261° |
| 2026-05-08 05:04 | 35.76265 | -79.85686 | 28003 ft | 300 kts | 261° |
| 2026-05-08 05:04 | 35.75835 | -79.88169 | 28003 ft | 298 kts | 261° |
| 2026-05-08 05:04 | 35.75404 | -79.90670 | 28008 ft | 302 kts | 262° |
| 2026-05-08 05:05 | 35.74533 | -79.95721 | 28006 ft | 301 kts | 262° |
| 2026-05-08 05:05 | 35.73659 | -80.00773 | 28008 ft | 300 kts | 261° |
| 2026-05-08 05:06 | 35.72787 | -80.05802 | 28005 ft | 302 kts | 262° |
| 2026-05-08 05:06 | 35.71913 | -80.10826 | 28007 ft | 300 kts | 262° |
| 2026-05-08 05:07 | 35.71475 | -80.13337 | 28003 ft | 300 kts | 261° |
| 2026-05-08 05:07 | 35.71035 | -80.15845 | 28005 ft | 301 kts | 262° |
| 2026-05-08 05:07 | 35.70161 | -80.20857 | 28001 ft | 301 kts | 261° |
| 2026-05-08 05:08 | 35.69717 | -80.23379 | 28007 ft | 300 kts | 261° |
| 2026-05-08 05:08 | 35.69278 | -80.25867 | 28010 ft | 301 kts | 262° |
| 2026-05-08 05:08 | 35.68837 | -80.28379 | 28007 ft | 300 kts | 261° |
| 2026-05-08 05:08 | 35.68396 | -80.30888 | 28011 ft | 302 kts | 262° |
| 2026-05-08 05:09 | 35.67513 | -80.35911 | 28009 ft | 301 kts | 262° |
| 2026-05-08 05:09 | 35.66623 | -80.40935 | 28011 ft | 300 kts | 261° |
| 2026-05-08 05:10 | 35.65174 | -80.48406 | 28014 ft | 303 kts | 257° |
| 2026-05-08 05:11 | 35.63621 | -80.53213 | 28009 ft | 307 kts | 254° |
| 2026-05-08 05:11 | 35.61958 | -80.58016 | 28013 ft | 304 kts | 255° |
| 2026-05-08 05:12 | 35.60316 | -80.62823 | 28019 ft | 307 kts | 253° |
| 2026-05-08 05:12 | 35.58691 | -80.67603 | 28007 ft | 304 kts | 254° |
| 2026-05-08 05:13 | 35.57056 | -80.72421 | 28012 ft | 305 kts | 254° |
| 2026-05-08 05:13 | 35.55423 | -80.77228 | 28009 ft | 306 kts | 253° |
| 2026-05-08 05:14 | 35.53793 | -80.82018 | 28015 ft | 307 kts | 253° |
| 2026-05-08 05:14 | 35.52143 | -80.86862 | 28019 ft | 305 kts | 254° |
| 2026-05-08 05:15 | 35.50508 | -80.91653 | 28018 ft | 306 kts | 254° |
| 2026-05-08 05:15 | 35.48862 | -80.96463 | 28029 ft | 308 kts | 253° |
| 2026-05-08 05:16 | 35.47218 | -81.01268 | 28027 ft | 304 kts | 253° |
| 2026-05-08 05:16 | 35.45579 | -81.06052 | 28021 ft | 305 kts | 253° |
| 2026-05-08 05:17 | 35.43934 | -81.10840 | 28023 ft | 305 kts | 253° |
| 2026-05-08 05:17 | 35.42285 | -81.15628 | 28015 ft | 306 kts | 254° |
| 2026-05-08 05:18 | 35.40638 | -81.20406 | 28024 ft | 305 kts | 254° |
| 2026-05-08 05:18 | 35.38984 | -81.25216 | 28018 ft | 305 kts | 253° |
| 2026-05-08 05:19 | 35.37337 | -81.29982 | 28021 ft | 306 kts | 253° |
| 2026-05-08 05:19 | 35.35683 | -81.34749 | 28020 ft | 306 kts | 254° |
| 2026-05-08 05:20 | 35.34009 | -81.39577 | 28023 ft | 307 kts | 254° |
| 2026-05-08 05:20 | 35.32348 | -81.44353 | 28022 ft | 308 kts | 253° |
| 2026-05-08 05:21 | 35.30672 | -81.49172 | 28016 ft | 307 kts | 255° |
| 2026-05-08 05:21 | 35.28996 | -81.53987 | 28022 ft | 306 kts | 254° |
| 2026-05-08 05:22 | 35.27325 | -81.58781 | 28022 ft | 306 kts | 253° |
| 2026-05-08 05:22 | 35.25644 | -81.63596 | 28024 ft | 309 kts | 254° |
| 2026-05-08 05:23 | 35.23969 | -81.68381 | 28019 ft | 306 kts | 252° |
| 2026-05-08 05:23 | 35.22287 | -81.73174 | 28020 ft | 309 kts | 253° |
| 2026-05-08 05:24 | 35.20600 | -81.77988 | 28017 ft | 309 kts | 254° |
| 2026-05-08 05:24 | 35.18903 | -81.82808 | 28013 ft | 308 kts | 254° |
| 2026-05-08 05:25 | 35.17224 | -81.87588 | 28012 ft | 307 kts | 254° |
| 2026-05-08 05:25 | 35.15522 | -81.92415 | 28005 ft | 308 kts | 253° |
| 2026-05-08 05:26 | 35.13831 | -81.97187 | 28017 ft | 307 kts | 254° |
| 2026-05-08 05:26 | 35.12123 | -82.02017 | 28015 ft | 307 kts | 254° |
| 2026-05-08 05:27 | 35.10430 | -82.06805 | 28019 ft | 309 kts | 253° |
| 2026-05-08 05:27 | 35.08730 | -82.11601 | 28012 ft | 308 kts | 253° |
| 2026-05-08 05:28 | 35.07020 | -82.16398 | 28021 ft | 306 kts | 253° |
| 2026-05-08 05:28 | 35.05318 | -82.21170 | 28019 ft | 309 kts | 254° |
| 2026-05-08 05:29 | 35.03616 | -82.25954 | 28022 ft | 307 kts | 253° |
| 2026-05-08 05:29 | 35.01911 | -82.30729 | 28022 ft | 308 kts | 253° |
| 2026-05-08 05:30 | 34.99878 | -82.35394 | 28024 ft | 315 kts | 248° |
| 2026-05-08 05:30 | 34.97598 | -82.39961 | 28025 ft | 314 kts | 248° |
| 2026-05-08 05:31 | 34.95372 | -82.44503 | 28026 ft | 315 kts | 248° |
| 2026-05-08 05:31 | 34.93134 | -82.49133 | 28027 ft | 314 kts | 247° |
| 2026-05-08 05:32 | 34.90937 | -82.53677 | 28028 ft | 311 kts | 248° |
| 2026-05-08 05:32 | 34.88729 | -82.58253 | 28022 ft | 316 kts | 248° |
| 2026-05-08 05:33 | 34.86489 | -82.62809 | 28026 ft | 316 kts | 245° |
| 2026-05-08 05:33 | 34.83922 | -82.67253 | 28022 ft | 320 kts | 243° |
| 2026-05-08 05:34 | 34.81326 | -82.71606 | 28019 ft | 318 kts | 243° |
| 2026-05-08 05:34 | 34.78743 | -82.76012 | 28021 ft | 319 kts | 243° |
| 2026-05-08 05:35 | 34.76194 | -82.80468 | 28021 ft | 320 kts | 244° |
| 2026-05-08 05:35 | 34.73682 | -82.84938 | 28027 ft | 322 kts | 244° |
| 2026-05-08 05:36 | 34.71174 | -82.89394 | 28028 ft | 318 kts | 243° |
| 2026-05-08 05:36 | 34.68664 | -82.93841 | 28028 ft | 320 kts | 244° |
| 2026-05-08 05:37 | 34.66156 | -82.98270 | 28028 ft | 319 kts | 244° |
| 2026-05-08 05:37 | 34.63622 | -83.02738 | 28020 ft | 319 kts | 244° |
| 2026-05-08 05:38 | 34.61120 | -83.07153 | 28019 ft | 319 kts | 244° |
| 2026-05-08 05:38 | 34.58598 | -83.11593 | 28027 ft | 317 kts | 243° |
| 2026-05-08 05:39 | 34.56077 | -83.16029 | 28027 ft | 319 kts | 243° |
| 2026-05-08 05:39 | 34.53566 | -83.20439 | 28034 ft | 320 kts | 244° |
| 2026-05-08 05:40 | 34.51049 | -83.24855 | 27712 ft | 314 kts | 243° |
| 2026-05-08 05:40 | 34.49803 | -83.27047 | 27307 ft | 328 kts | 243° |
| 2026-05-08 05:40 | 34.48470 | -83.29417 | 26663 ft | 352 kts | 242° |
| 2026-05-08 05:40 | 34.47067 | -83.31886 | 26121 ft | 361 kts | 242° |
| 2026-05-08 05:41 | 34.45612 | -83.34387 | 25527 ft | 359 kts | 242° |
| 2026-05-08 05:41 | 34.44247 | -83.36727 | 24983 ft | 379 kts | 242° |
| 2026-05-08 05:41 | 34.42696 | -83.39402 | 24340 ft | 400 kts | 241° |
| 2026-05-08 05:41 | 34.41053 | -83.42233 | 23677 ft | 421 kts | 240° |
| 2026-05-08 05:42 | 34.39339 | -83.45181 | 22966 ft | 434 kts | 240° |
| 2026-05-08 05:42 | 34.37606 | -83.48138 | 22244 ft | 427 kts | 240° |
| 2026-05-08 05:42 | 34.35900 | -83.51030 | 21535 ft | 416 kts | 240° |
| 2026-05-08 05:42 | 34.34279 | -83.53765 | 21512 ft | 388 kts | 240° |
| 2026-05-08 05:43 | 34.32758 | -83.56316 | 21588 ft | 360 kts | 241° |
| 2026-05-08 05:43 | 34.31347 | -83.58692 | 21537 ft | 339 kts | 241° |
| 2026-05-08 05:43 | 34.29989 | -83.60991 | 20955 ft | 334 kts | 241° |
| 2026-05-08 05:43 | 34.28578 | -83.63152 | 20636 ft | 325 kts | 236° |
| 2026-05-08 05:44 | 34.27010 | -83.65053 | 20205 ft | 319 kts | 231° |
| 2026-05-08 05:44 | 34.25344 | -83.66839 | 19498 ft | 318 kts | 229° |
| 2026-05-08 05:44 | 34.23667 | -83.68572 | 18602 ft | 322 kts | 229° |
| 2026-05-08 05:44 | 34.21979 | -83.70314 | 17806 ft | 320 kts | 228° |
| 2026-05-08 05:45 | 34.20301 | -83.72053 | 17105 ft | 316 kts | 228° |
| 2026-05-08 05:45 | 34.18666 | -83.73763 | 16384 ft | 312 kts | 229° |
| 2026-05-08 05:45 | 34.17036 | -83.75487 | 15619 ft | 310 kts | 229° |
| 2026-05-08 05:45 | 34.15429 | -83.77197 | 14826 ft | 309 kts | 229° |
| 2026-05-08 05:46 | 34.13828 | -83.78902 | 14078 ft | 307 kts | 228° |
| 2026-05-08 05:46 | 34.12248 | -83.80583 | 13514 ft | 303 kts | 228° |
| 2026-05-08 05:46 | 34.10652 | -83.82276 | 12988 ft | 302 kts | 227° |
| 2026-05-08 05:46 | 34.09092 | -83.83932 | 12511 ft | 301 kts | 227° |
| 2026-05-08 05:47 | 34.07534 | -83.85597 | 12037 ft | 299 kts | 227° |
| 2026-05-08 05:47 | 34.05978 | -83.87270 | 11554 ft | 297 kts | 227° |
| 2026-05-08 05:47 | 34.04456 | -83.88908 | 11085 ft | 296 kts | 227° |
| 2026-05-08 05:47 | 34.02920 | -83.90559 | 10622 ft | 294 kts | 227° |
| 2026-05-08 05:48 | 34.01400 | -83.92188 | 10335 ft | 287 kts | 227° |
| 2026-05-08 05:48 | 33.99946 | -83.93740 | 10200 ft | 274 kts | 228° |
| 2026-05-08 05:48 | 33.98540 | -83.95230 | 10100 ft | 262 kts | 226° |
| 2026-05-08 05:48 | 33.97036 | -83.96481 | 9822 ft | 265 kts | 212° |
| 2026-05-08 05:49 | 33.95199 | -83.96970 | 9478 ft | 278 kts | 189° |
| 2026-05-08 05:49 | 33.93253 | -83.96874 | 9123 ft | 281 kts | 183° |
| 2026-05-08 05:49 | 33.91330 | -83.96678 | 8964 ft | 274 kts | 183° |
| 2026-05-08 05:49 | 33.89397 | -83.96516 | 8969 ft | 280 kts | 184° |
| 2026-05-08 05:50 | 33.87439 | -83.96406 | 8963 ft | 278 kts | 186° |
| 2026-05-08 05:50 | 33.85511 | -83.96323 | 8966 ft | 279 kts | 186° |
| 2026-05-08 05:50 | 33.83553 | -83.96246 | 8954 ft | 278 kts | 186° |
| 2026-05-08 05:50 | 33.81604 | -83.96169 | 8957 ft | 280 kts | 186° |
| 2026-05-08 05:51 | 33.79655 | -83.96091 | 8963 ft | 279 kts | 186° |
| 2026-05-08 05:51 | 33.77725 | -83.96009 | 8966 ft | 280 kts | 186° |
| 2026-05-08 05:51 | 33.75779 | -83.95966 | 8960 ft | 277 kts | 190° |
| 2026-05-08 05:51 | 33.73889 | -83.96270 | 8855 ft | 264 kts | 201° |
| 2026-05-08 05:52 | 33.72156 | -83.96858 | 8582 ft | 258 kts | 205° |
| 2026-05-08 05:52 | 33.70461 | -83.97523 | 8249 ft | 256 kts | 206° |
| 2026-05-08 05:52 | 33.68745 | -83.98174 | 7922 ft | 255 kts | 204° |
| 2026-05-08 05:52 | 33.67060 | -83.98774 | 7600 ft | 254 kts | 204° |
| 2026-05-08 05:53 | 33.65402 | -83.99493 | 7272 ft | 247 kts | 214° |
| 2026-05-08 05:53 | 33.64129 | -84.00719 | 6997 ft | 229 kts | 238° |
| 2026-05-08 05:53 | 33.63450 | -84.02362 | 6881 ft | 211 kts | 258° |
| 2026-05-08 05:53 | 33.63216 | -84.04034 | 6757 ft | 198 kts | 267° |
| 2026-05-08 05:54 | 33.63150 | -84.05641 | 6605 ft | 190 kts | 270° |
| 2026-05-08 05:54 | 33.63130 | -84.07210 | 6387 ft | 186 kts | 271° |
| 2026-05-08 05:54 | 33.63127 | -84.08777 | 6019 ft | 190 kts | 271° |
| 2026-05-08 05:54 | 33.63128 | -84.10359 | 5692 ft | 189 kts | 272° |
| 2026-05-08 05:55 | 33.63132 | -84.11915 | 5413 ft | 185 kts | 272° |
| 2026-05-08 05:55 | 33.63137 | -84.13441 | 5190 ft | 180 kts | 272° |
| 2026-05-08 05:55 | 33.63141 | -84.14920 | 5010 ft | 172 kts | 272° |
| 2026-05-08 05:55 | 33.63144 | -84.16328 | 4843 ft | 165 kts | 273° |
| 2026-05-08 05:56 | 33.63147 | -84.17664 | 4682 ft | 158 kts | 273° |
| 2026-05-08 05:56 | 33.63150 | -84.18954 | 4526 ft | 152 kts | 274° |
| 2026-05-08 05:56 | 33.63155 | -84.20268 | 4413 ft | 158 kts | 274° |
| 2026-05-08 05:56 | 33.63158 | -84.21578 | 4367 ft | 159 kts | 274° |
| 2026-05-08 05:57 | 33.63161 | -84.22938 | 4130 ft | 165 kts | 274° |
| 2026-05-08 05:57 | 33.63162 | -84.24294 | 3886 ft | 163 kts | 274° |
| 2026-05-08 05:57 | 33.63164 | -84.25665 | 3659 ft | 162 kts | 275° |
| 2026-05-08 05:57 | 33.63166 | -84.27009 | 3437 ft | 160 kts | 275° |
| 2026-05-08 05:58 | 33.63168 | -84.28317 | 3225 ft | 156 kts | 276° |
| 2026-05-08 05:58 | 33.63171 | -84.29604 | 2994 ft | 150 kts | 275° |
| 2026-05-08 05:58 | 33.63171 | -84.30830 | 2811 ft | 146 kts | 275° |
| 2026-05-08 05:58 | 33.63176 | -84.32044 | 2605 ft | 146 kts | 274° |
| 2026-05-08 05:59 | 33.63175 | -84.33250 | 2425 ft | 145 kts | 274° |
| 2026-05-08 05:59 | 33.63175 | -84.34454 | 2248 ft | 138 kts | 273° |
| 2026-05-08 05:59 | 33.63179 | -84.35603 | 2021 ft | 138 kts | 273° |
| 2026-05-08 05:59 | 33.63179 | -84.36765 | 1857 ft | 140 kts | 272° |
| 2026-05-08 06:00 | 33.63178 | -84.37938 | 1675 ft | 142 kts | 271° |
| 2026-05-08 06:00 | 33.63183 | -84.39130 | 1455 ft | 144 kts | 271° |
| 2026-05-08 06:00 | 33.63174 | -84.40305 | 1261 ft | 139 kts | 271° |
| 2026-05-08 06:00 | 33.63182 | -84.41441 | 1074 ft | 135 kts | 270° |
| 2026-05-08 06:01 | 33.63182 | -84.42534 | 996 ft | 117 kts | 271° |
| 2026-05-08 06:01 | 33.63184 | -84.43272 | 1007 ft | 62 kts | 270° |
| 2026-05-08 06:01 | 33.63212 | -84.43587 | 1010 ft | 29 kts | 292° |
| 2026-05-08 06:01 | 33.63274 | -84.43724 | 1013 ft | 4 kts | 323° |
| 2026-05-08 06:02 | 33.63305 | -84.43735 | 1013 ft | 5 kts | 360° |
| 2026-05-08 06:02 | 33.63351 | -84.43706 | 1012 ft | 9 kts | 56° |
| 2026-05-08 06:02 | 33.63365 | -84.43636 | 1012 ft | 7 kts | 63° |
| 2026-05-08 06:02 | 33.63416 | -84.43607 | 1013 ft | 10 kts | 4° |
| 2026-05-08 06:03 | 33.63495 | -84.43607 | 1014 ft | 11 kts | 360° |
| 2026-05-08 06:03 | 33.63557 | -84.43607 | 1013 ft | 4 kts | 352° |
| 2026-05-08 06:03 | 33.63576 | -84.43629 | 1014 ft | 3 kts | 295° |
| 2026-05-08 06:03 | 33.63581 | -84.43662 | 1015 ft | 5 kts | 274° |
| 2026-05-08 06:04 | 33.63585 | -84.43722 | 1015 ft | 5 kts | 295° |
| 2026-05-08 06:04 | 33.63633 | -84.43753 | 1015 ft | 9 kts | 356° |
| 2026-05-08 06:04 | 33.63688 | -84.43732 | 1015 ft | 10 kts | 27° |
| 2026-05-08 06:04 | 33.63745 | -84.43720 | 1015 ft | 9 kts | 1° |
| 2026-05-08 06:05 | 33.63812 | -84.43720 | 1015 ft | 6 kts | 3° |
| 2026-05-08 06:05 | 33.63834 | -84.43684 | 1015 ft | 6 kts | 82° |
| 2026-05-08 06:05 | 33.63834 | -84.43642 | 1014 ft | 2 kts | 90° |
| 2026-05-08 06:05 | 33.63834 | -84.43640 | 1014 ft | 0 kts | 90° |